Time;durP1;ratioP1;P1;durP2;ratioP2;P2;SDS_P1;SDS_P2;PMS_P1;PMS_P2;Temp;Humidity;BMP_temperature;BMP_pressure;BME280_temperature;BME280_humidity;BME280_pressure;Samples;Min_cycle;Max_cycle;Signal;HPM_P1;HPM_P2
2022/03/27 00:00:15;;;;;;;8.07;4.37;;;;;;;;;;4969825;28;20207;-59
2022/03/27 00:02:43;;;;;;;8.23;5.17;;;;;;;;;;4969799;28;20210;-59
2022/03/27 00:05:10;;;;;;;7.37;4.77;;;;;;;;;;4970468;28;20206;-59
2022/03/27 00:07:37;;;;;;;7.63;4.83;;;;;;;;;;4969852;28;20202;-58
2022/03/27 00:10:05;;;;;;;8.63;4.53;;;;;;;;;;4969950;28;20237;-57
2022/03/27 00:12:32;;;;;;;9.20;5.13;;;;;;;;;;4967807;28;20214;-59
2022/03/27 00:15:01;;;;;;;6.83;4.97;;;;;;;;;;4969031;28;20206;-58
2022/03/27 00:17:32;;;;;;;7.17;4.90;;;;;;;;;;4968128;28;20351;-58
2022/03/27 00:19:59;;;;;;;9.67;5.30;;;;;;;;;;4966283;28;20206;-58
2022/03/27 00:22:27;;;;;;;7.40;4.43;;;;;;;;;;4966065;28;20213;-58
2022/03/27 00:24:54;;;;;;;7.37;4.93;;;;;;;;;;4966605;28;20307;-58
2022/03/27 00:27:21;;;;;;;8.70;5.27;;;;;;;;;;4967577;28;20236;-58
2022/03/27 00:29:48;;;;;;;8.43;5.17;;;;;;;;;;4963419;28;20277;-58
2022/03/27 00:32:15;;;;;;;9.10;5.07;;;;;;;;;;4968110;28;20579;-59
2022/03/27 00:34:43;;;;;;;9.97;5.57;;;;;;;;;;4968012;28;20215;-59
2022/03/27 00:37:10;;;;;;;9.27;5.43;;;;;;;;;;4968358;28;20261;-58
2022/03/27 00:39:37;;;;;;;7.67;4.83;;;;;;;;;;4967397;28;20253;-59
2022/03/27 00:42:05;;;;;;;7.07;4.77;;;;;;;;;;4967577;28;20218;-59
2022/03/27 00:44:32;;;;;;;9.50;5.10;;;;;;;;;;4967617;28;20242;-59
2022/03/27 00:46:59;;;;;;;12.00;5.07;;;;;;;;;;4967613;28;20207;-58
2022/03/27 00:49:26;;;;;;;8.07;5.03;;;;;;;;;;4967036;28;20237;-59
2022/03/27 00:51:55;;;;;;;7.83;5.23;;;;;;;;;;4968430;28;20622;-59
2022/03/27 00:54:22;;;;;;;10.10;5.37;;;;;;;;;;4967923;28;20966;-59
2022/03/27 00:56:49;;;;;;;9.20;4.80;;;;;;;;;;4967708;28;20237;-58
2022/03/27 00:59:17;;;;;;;8.37;4.70;;;;;;;;;;4968398;28;20303;-59
2022/03/27 01:01:44;;;;;;;12.13;5.17;;;;;;;;;;4967174;28;20206;-59
2022/03/27 01:04:11;;;;;;;8.07;5.03;;;;;;;;;;4968430;28;20269;-58
2022/03/27 01:06:40;;;;;;;10.27;5.53;;;;;;;;;;4965779;28;20528;-59
2022/03/27 01:11:54;;;;;;;8.30;5.23;;;;;;;;;;4967759;28;20210;-58
2022/03/27 01:14:26;;;;;;;7.77;5.03;;;;;;;;;;4967938;28;20303;-59
2022/03/27 01:16:58;;;;;;;6.67;4.63;;;;;;;;;;4967260;28;20687;-59
2022/03/27 01:19:26;;;;;;;6.27;4.50;;;;;;;;;;4966093;28;20294;-59
2022/03/27 01:21:54;;;;;;;6.73;4.90;;;;;;;;;;4965895;28;20198;-58
2022/03/27 01:24:21;;;;;;;8.07;5.17;;;;;;;;;;4968139;28;20271;-58
2022/03/27 01:26:48;;;;;;;6.03;4.53;;;;;;;;;;4964678;28;20285;-58
2022/03/27 01:29:16;;;;;;;8.47;5.03;;;;;;;;;;4968254;28;20206;-59
2022/03/27 01:31:44;;;;;;;6.43;4.93;;;;;;;;;;4967318;28;20807;-59
2022/03/27 01:34:11;;;;;;;7.43;4.57;;;;;;;;;;4967891;28;20296;-58
2022/03/27 01:36:38;;;;;;;8.83;5.30;;;;;;;;;;4967499;28;20955;-59
2022/03/27 01:39:08;;;;;;;8.27;5.40;;;;;;;;;;4966866;28;20202;-59
2022/03/27 01:41:35;;;;;;;5.73;4.57;;;;;;;;;;4967932;28;20210;-59
2022/03/27 01:44:02;;;;;;;11.17;4.87;;;;;;;;;;4967124;28;20215;-59
2022/03/27 01:46:32;;;;;;;8.10;4.90;;;;;;;;;;4969035;28;20221;-57
2022/03/27 01:49:00;;;;;;;5.03;4.37;;;;;;;;;;4971819;28;20301;-60
2022/03/27 01:51:28;;;;;;;7.07;4.67;;;;;;;;;;4970604;28;20234;-58
2022/03/27 01:53:55;;;;;;;12.00;5.27;;;;;;;;;;4971015;28;20313;-58
2022/03/27 01:56:24;;;;;;;8.43;5.07;;;;;;;;;;4970985;28;20289;-58
2022/03/27 01:58:51;;;;;;;9.53;5.03;;;;;;;;;;4967519;28;20235;-58
2022/03/27 02:01:19;;;;;;;7.13;4.77;;;;;;;;;;4971151;28;20634;-58
2022/03/27 02:03:46;;;;;;;7.90;5.23;;;;;;;;;;4970916;28;20202;-58
2022/03/27 02:06:13;;;;;;;7.23;4.93;;;;;;;;;;4971310;28;20206;-58
2022/03/27 02:08:41;;;;;;;6.97;5.23;;;;;;;;;;4970829;28;20210;-58
2022/03/27 02:11:08;;;;;;;6.57;4.80;;;;;;;;;;4970215;28;20717;-58
2022/03/27 02:13:37;;;;;;;8.20;5.13;;;;;;;;;;4971505;28;20241;-58
2022/03/27 02:16:04;;;;;;;9.37;5.77;;;;;;;;;;4967934;28;20257;-58
2022/03/27 02:18:32;;;;;;;7.17;4.57;;;;;;;;;;4971113;28;20214;-58
2022/03/27 02:21:00;;;;;;;8.67;5.07;;;;;;;;;;4971138;28;20210;-59
2022/03/27 02:23:27;;;;;;;8.57;5.53;;;;;;;;;;4970941;28;20202;-58
2022/03/27 02:25:54;;;;;;;6.30;4.47;;;;;;;;;;4968090;28;20207;-58
2022/03/27 02:28:22;;;;;;;13.83;5.40;;;;;;;;;;4971331;28;20206;-58
2022/03/27 02:30:50;;;;;;;10.07;5.03;;;;;;;;;;4972168;28;20288;-58
2022/03/27 02:33:17;;;;;;;8.77;4.50;;;;;;;;;;4970806;28;20215;-58
2022/03/27 02:35:45;;;;;;;10.27;5.00;;;;;;;;;;4971548;28;20269;-58
2022/03/27 02:38:12;;;;;;;9.70;5.20;;;;;;;;;;4970731;28;20215;-58
2022/03/27 02:40:39;;;;;;;7.93;4.90;;;;;;;;;;4967134;28;20210;-58
2022/03/27 02:43:07;;;;;;;5.33;4.23;;;;;;;;;;4970112;28;20217;-58
2022/03/27 02:45:34;;;;;;;7.00;4.60;;;;;;;;;;4970239;28;20218;-58
2022/03/27 02:48:03;;;;;;;9.70;4.83;;;;;;;;;;4970317;28;20214;-58
2022/03/27 02:50:31;;;;;;;4.93;4.00;;;;;;;;;;4970472;28;20639;-58
2022/03/27 02:52:58;;;;;;;8.87;4.17;;;;;;;;;;4970672;28;20665;-58
2022/03/27 02:55:25;;;;;;;8.13;4.40;;;;;;;;;;4971469;28;20209;-58
2022/03/27 02:57:53;;;;;;;7.67;4.20;;;;;;;;;;4969365;28;20230;-59
2022/03/27 03:00:21;;;;;;;9.47;5.17;;;;;;;;;;4960813;28;20222;-58
2022/03/27 03:02:48;;;;;;;7.27;4.47;;;;;;;;;;4969310;28;20229;-58
2022/03/27 03:05:17;;;;;;;7.80;4.37;;;;;;;;;;4970572;28;20202;-59
2022/03/27 03:07:45;;;;;;;6.93;4.47;;;;;;;;;;4970148;28;20231;-58
2022/03/27 03:10:14;;;;;;;8.13;5.30;;;;;;;;;;4969256;28;20213;-58
2022/03/27 03:12:41;;;;;;;8.47;4.90;;;;;;;;;;4966516;28;20206;-58
2022/03/27 03:15:09;;;;;;;8.67;4.57;;;;;;;;;;4970457;28;20326;-58
2022/03/27 03:17:36;;;;;;;8.30;4.27;;;;;;;;;;4964531;28;20214;-58
2022/03/27 03:20:04;;;;;;;6.97;4.40;;;;;;;;;;4970002;28;20198;-58
2022/03/27 03:22:32;;;;;;;6.97;4.67;;;;;;;;;;4968133;28;20207;-59
2022/03/27 03:24:59;;;;;;;8.73;5.60;;;;;;;;;;4969358;28;20209;-58
2022/03/27 03:27:26;;;;;;;8.60;4.97;;;;;;;;;;4970484;28;20269;-58
2022/03/27 03:29:54;;;;;;;7.20;4.83;;;;;;;;;;4971328;28;20211;-58
2022/03/27 03:32:22;;;;;;;7.27;4.63;;;;;;;;;;4970889;28;20226;-58
2022/03/27 03:34:49;;;;;;;8.37;5.47;;;;;;;;;;4970421;28;20211;-58
2022/03/27 03:37:17;;;;;;;9.53;5.50;;;;;;;;;;4970733;28;20280;-58
2022/03/27 03:39:46;;;;;;;10.00;5.37;;;;;;;;;;4969552;28;20239;-58
2022/03/27 03:42:14;;;;;;;7.97;4.97;;;;;;;;;;4969747;28;20285;-58
2022/03/27 03:44:43;;;;;;;6.03;4.10;;;;;;;;;;4967310;28;20606;-59
2022/03/27 03:47:10;;;;;;;6.03;4.07;;;;;;;;;;4967894;28;20213;-58
2022/03/27 03:49:37;;;;;;;13.37;4.87;;;;;;;;;;4969683;28;20229;-59
2022/03/27 03:52:06;;;;;;;13.10;5.40;;;;;;;;;;4969858;28;21004;-58
2022/03/27 03:54:34;;;;;;;8.00;4.53;;;;;;;;;;4968698;28;20226;-58
2022/03/27 03:57:02;;;;;;;10.77;5.13;;;;;;;;;;4969205;28;20234;-58
2022/03/27 03:59:31;;;;;;;8.87;4.77;;;;;;;;;;4967864;28;20350;-57
2022/03/27 04:01:58;;;;;;;6.83;4.87;;;;;;;;;;4968360;28;20209;-59
2022/03/27 04:04:25;;;;;;;8.50;4.97;;;;;;;;;;4967412;28;20626;-59
2022/03/27 04:06:52;;;;;;;8.33;5.47;;;;;;;;;;4968668;28;20208;-58
2022/03/27 04:09:20;;;;;;;10.03;5.03;;;;;;;;;;4968413;28;20206;-58
2022/03/27 04:11:47;;;;;;;7.13;4.63;;;;;;;;;;4968079;28;20257;-59
2022/03/27 04:14:15;;;;;;;7.03;4.87;;;;;;;;;;4968630;28;20214;-58
2022/03/27 04:16:42;;;;;;;7.70;4.43;;;;;;;;;;4967093;28;20230;-58
2022/03/27 04:19:11;;;;;;;4.80;4.03;;;;;;;;;;4966277;28;20209;-59
2022/03/27 04:21:38;;;;;;;6.97;4.53;;;;;;;;;;4967435;28;20246;-58
2022/03/27 04:24:06;;;;;;;8.83;5.20;;;;;;;;;;4966989;28;20289;-58
2022/03/27 04:26:33;;;;;;;19.73;5.10;;;;;;;;;;4967417;28;20218;-58
2022/03/27 04:29:00;;;;;;;8.53;4.33;;;;;;;;;;4967939;28;20206;-58
2022/03/27 04:31:29;;;;;;;7.70;4.67;;;;;;;;;;4966981;28;20221;-59
2022/03/27 04:33:56;;;;;;;9.60;5.00;;;;;;;;;;4966720;28;20213;-59
2022/03/27 04:36:24;;;;;;;6.20;4.87;;;;;;;;;;4964253;28;20213;-58
2022/03/27 04:38:51;;;;;;;9.77;5.00;;;;;;;;;;4966854;28;20668;-58
2022/03/27 04:41:18;;;;;;;5.83;4.63;;;;;;;;;;4967429;28;21388;-58
2022/03/27 04:43:47;;;;;;;11.73;5.20;;;;;;;;;;4968017;28;20220;-59
2022/03/27 04:46:14;;;;;;;6.47;4.93;;;;;;;;;;4967292;28;20206;-58
2022/03/27 04:48:42;;;;;;;6.97;4.77;;;;;;;;;;4967881;28;20211;-59
2022/03/27 04:51:09;;;;;;;9.10;4.80;;;;;;;;;;4968082;28;20739;-59
2022/03/27 04:53:36;;;;;;;9.70;5.30;;;;;;;;;;4966901;28;20211;-59
2022/03/27 04:56:03;;;;;;;7.30;4.63;;;;;;;;;;4966964;28;20304;-58
2022/03/27 04:58:30;;;;;;;11.10;4.77;;;;;;;;;;4966867;28;20233;-59
2022/03/27 05:00:57;;;;;;;6.47;4.80;;;;;;;;;;4968026;28;20213;-59
2022/03/27 05:03:24;;;;;;;10.57;4.83;;;;;;;;;;4966311;28;20214;-58
2022/03/27 05:05:53;;;;;;;11.30;5.20;;;;;;;;;;4967360;28;20218;-58
2022/03/27 05:08:20;;;;;;;6.97;5.03;;;;;;;;;;4965811;28;20621;-58
2022/03/27 05:10:47;;;;;;;8.27;5.00;;;;;;;;;;4967055;28;20305;-58
2022/03/27 05:13:14;;;;;;;8.47;5.13;;;;;;;;;;4966671;28;20211;-58
2022/03/27 05:15:42;;;;;;;8.67;4.90;;;;;;;;;;4968565;28;20296;-59
2022/03/27 05:18:10;;;;;;;8.40;5.30;;;;;;;;;;4965650;28;20206;-58
2022/03/27 05:20:39;;;;;;;8.27;5.00;;;;;;;;;;4965916;28;20225;-59
2022/03/27 05:23:08;;;;;;;9.20;4.70;;;;;;;;;;4969098;28;20218;-58
2022/03/27 05:25:40;;;;;;;6.53;4.07;;;;;;;;;;4970201;28;20213;-58
2022/03/27 05:28:08;;;;;;;7.70;4.60;;;;;;;;;;4971349;28;20253;-58
2022/03/27 05:30:35;;;;;;;9.03;5.37;;;;;;;;;;4972294;28;20214;-59
2022/03/27 05:33:03;;;;;;;7.50;5.03;;;;;;;;;;4971116;28;20226;-59
2022/03/27 05:35:30;;;;;;;10.37;5.70;;;;;;;;;;4967814;28;20302;-59
2022/03/27 05:37:58;;;;;;;7.43;4.80;;;;;;;;;;4968253;28;20677;-58
2022/03/27 05:40:27;;;;;;;15.20;5.87;;;;;;;;;;4972569;28;20595;-58
2022/03/27 05:42:54;;;;;;;13.97;6.67;;;;;;;;;;4973204;28;20203;-58
2022/03/27 05:45:21;;;;;;;14.07;6.47;;;;;;;;;;4972044;28;20211;-58
2022/03/27 05:47:49;;;;;;;11.93;6.87;;;;;;;;;;4972544;28;20284;-58
2022/03/27 05:50:18;;;;;;;18.47;9.70;;;;;;;;;;4971974;28;20202;-59
2022/03/27 05:52:45;;;;;;;16.93;8.50;;;;;;;;;;4972082;28;20234;-59
2022/03/27 05:55:12;;;;;;;18.53;9.63;;;;;;;;;;4972875;28;20207;-58
2022/03/27 05:57:42;;;;;;;20.50;9.50;;;;;;;;;;4972739;28;20253;-59
2022/03/27 06:00:12;;;;;;;11.27;6.60;;;;;;;;;;4972483;28;20214;-59
2022/03/27 06:02:39;;;;;;;10.93;5.93;;;;;;;;;;4972890;28;20207;-59
2022/03/27 06:05:07;;;;;;;10.30;5.93;;;;;;;;;;4953745;29;20219;-59
2022/03/27 06:07:42;;;;;;;12.60;6.30;;;;;;;;;;4962701;28;20753;-58
2022/03/27 06:10:09;;;;;;;11.43;5.87;;;;;;;;;;4966438;28;20795;-58
2022/03/27 06:12:36;;;;;;;12.50;6.30;;;;;;;;;;4972552;28;20284;-58
2022/03/27 06:15:05;;;;;;;9.43;6.20;;;;;;;;;;4971379;28;20238;-58
2022/03/27 06:17:39;;;;;;;13.63;6.37;;;;;;;;;;4956532;28;20217;-58
2022/03/27 06:20:06;;;;;;;9.33;5.83;;;;;;;;;;4966542;28;20251;-58
2022/03/27 06:22:33;;;;;;;13.07;7.00;;;;;;;;;;4972512;28;20646;-58
2022/03/27 06:25:01;;;;;;;12.23;6.07;;;;;;;;;;4972815;28;20268;-57
2022/03/27 06:27:28;;;;;;;11.60;6.20;;;;;;;;;;4972642;28;20810;-57
2022/03/27 06:29:55;;;;;;;12.00;6.20;;;;;;;;;;4972335;28;20214;-58
2022/03/27 06:32:26;;;;;;;10.17;6.57;;;;;;;;;;4971803;28;20230;-58
2022/03/27 06:34:55;;;;;;;12.53;7.37;;;;;;;;;;4970664;28;20202;-59
2022/03/27 06:37:22;;;;;;;11.40;7.17;;;;;;;;;;4970475;28;20210;-58
2022/03/27 06:39:49;;;;;;;15.80;7.17;;;;;;;;;;4971789;28;20222;-58
2022/03/27 06:42:17;;;;;;;11.30;6.47;;;;;;;;;;4971261;28;20280;-58
2022/03/27 06:44:44;;;;;;;11.57;6.47;;;;;;;;;;4965889;28;20294;-58
2022/03/27 06:47:11;;;;;;;13.03;7.37;;;;;;;;;;4971292;28;20214;-58
2022/03/27 06:49:39;;;;;;;13.40;6.47;;;;;;;;;;4972251;28;20229;-58
2022/03/27 06:52:07;;;;;;;13.13;6.40;;;;;;;;;;4972036;28;20392;-58
2022/03/27 06:54:34;;;;;;;14.00;7.30;;;;;;;;;;4971804;28;20302;-58
2022/03/27 06:57:01;;;;;;;14.23;7.00;;;;;;;;;;4971597;28;20242;-59
2022/03/27 07:03:01;;;;;;;14.80;6.60;;;;;;;;;;4970957;28;20227;-57
2022/03/27 07:05:02;;;;;;;12.63;7.80;;;;;;;;;;4952466;29;20221;-56
2022/03/27 07:07:30;;;;;;;10.27;7.17;;;;;;;;;;4970520;28;20218;-58
2022/03/27 07:09:57;;;;;;;12.13;7.30;;;;;;;;;;4971587;28;20303;-58
2022/03/27 07:12:24;;;;;;;12.07;6.93;;;;;;;;;;4972098;28;20238;-57
2022/03/27 07:14:51;;;;;;;10.43;6.77;;;;;;;;;;4971452;28;20216;-58
2022/03/27 07:17:19;;;;;;;11.53;6.40;;;;;;;;;;4971682;28;20685;-58
2022/03/27 07:19:46;;;;;;;12.23;7.07;;;;;;;;;;4971246;28;20535;-58
2022/03/27 07:22:15;;;;;;;14.40;7.27;;;;;;;;;;4970853;28;20207;-57
2022/03/27 07:24:42;;;;;;;13.97;7.23;;;;;;;;;;4969536;28;20238;-58
2022/03/27 07:27:09;;;;;;;11.33;6.53;;;;;;;;;;4971591;28;20214;-58
2022/03/27 07:29:37;;;;;;;10.23;6.30;;;;;;;;;;4970960;28;20677;-57
2022/03/27 07:32:05;;;;;;;6.00;5.10;;;;;;;;;;4970925;28;20344;-58
2022/03/27 07:34:32;;;;;;;11.97;6.57;;;;;;;;;;4971070;28;20690;-58
2022/03/27 07:36:59;;;;;;;11.23;6.93;;;;;;;;;;4971201;28;20224;-57
2022/03/27 07:39:37;;;;;;;11.03;6.30;;;;;;;;;;4964577;28;20210;-57
2022/03/27 07:42:05;;;;;;;11.93;6.03;;;;;;;;;;4971031;28;20214;-57
2022/03/27 07:44:32;;;;;;;12.37;6.67;;;;;;;;;;4968433;28;20210;-57
2022/03/27 07:46:59;;;;;;;9.00;6.20;;;;;;;;;;4958533;28;20273;-57
2022/03/27 07:49:26;;;;;;;10.73;6.53;;;;;;;;;;4966314;28;20265;-58
2022/03/27 07:51:54;;;;;;;8.33;5.43;;;;;;;;;;4951349;28;20250;-58
2022/03/27 07:54:21;;;;;;;11.30;6.37;;;;;;;;;;4968271;28;20220;-58
2022/03/27 07:56:49;;;;;;;9.73;6.17;;;;;;;;;;4955781;28;20242;-58
2022/03/27 07:59:16;;;;;;;8.10;5.83;;;;;;;;;;4965359;28;20246;-58
2022/03/27 08:01:43;;;;;;;10.90;6.27;;;;;;;;;;4966174;28;20661;-59
2022/03/27 08:04:10;;;;;;;9.27;6.10;;;;;;;;;;4957177;28;20214;-58
2022/03/27 08:06:37;;;;;;;9.67;5.67;;;;;;;;;;4949449;28;20219;-59
2022/03/27 08:09:05;;;;;;;9.17;6.13;;;;;;;;;;4963579;28;20711;-60
2022/03/27 08:11:33;;;;;;;11.33;6.87;;;;;;;;;;4964243;28;20595;-58
2022/03/27 08:14:01;;;;;;;10.93;7.23;;;;;;;;;;4971733;28;20298;-58
2022/03/27 08:16:40;;;;;;;10.67;6.57;;;;;;;;;;4966335;28;20215;-59
2022/03/27 08:19:07;;;;;;;10.70;6.07;;;;;;;;;;4963283;28;20202;-58
2022/03/27 08:21:34;;;;;;;11.17;6.57;;;;;;;;;;4964231;28;20218;-58
2022/03/27 08:24:01;;;;;;;15.23;4.87;;;;;;;;;;4965870;28;20219;-58
2022/03/27 08:29:14;;;;;;;10.20;5.90;;;;;;;;;;4966064;28;20286;-58
2022/03/27 08:31:41;;;;;;;11.63;6.27;;;;;;;;;;4966168;28;20214;-59
2022/03/27 08:34:09;;;;;;;8.07;6.53;;;;;;;;;;4965883;28;20206;-58
2022/03/27 08:36:36;;;;;;;10.80;6.03;;;;;;;;;;4964180;28;20217;-58
2022/03/27 08:39:04;;;;;;;8.83;5.90;;;;;;;;;;4965243;28;20744;-60
2022/03/27 08:41:31;;;;;;;11.53;6.70;;;;;;;;;;4965830;28;20214;-59
2022/03/27 08:43:59;;;;;;;11.53;6.60;;;;;;;;;;4965543;28;20229;-59
2022/03/27 08:46:29;;;;;;;10.10;5.90;;;;;;;;;;4965925;28;20498;-60
2022/03/27 08:49:01;;;;;;;13.15;6.20;;;;;;;;;;4965922;28;20214;-59
2022/03/27 08:51:30;;;;;;;11.80;6.75;;;;;;;;;;4965367;28;20217;-60
2022/03/27 08:54:01;;;;;;;10.20;5.80;;;;;;;;;;4965438;28;20234;-58
2022/03/27 08:56:28;;;;;;;10.27;6.87;;;;;;;;;;4965888;28;20238;-59
2022/03/27 08:58:56;;;;;;;13.23;7.28;;;;;;;;;;4966084;28;20238;-58
2022/03/27 09:01:24;;;;;;;9.32;6.30;;;;;;;;;;4965353;28;20222;-58
2022/03/27 09:03:52;;;;;;;10.57;6.05;;;;;;;;;;4965387;28;20206;-57
2022/03/27 09:06:21;;;;;;;9.65;6.18;;;;;;;;;;4965555;28;20206;-58
2022/03/27 09:08:49;;;;;;;9.85;5.68;;;;;;;;;;4965350;28;20287;-59
2022/03/27 09:11:17;;;;;;;7.53;5.25;;;;;;;;;;4963474;28;20221;-59
2022/03/27 09:13:47;;;;;;;7.90;6.07;;;;;;;;;;4963889;28;20756;-59
2022/03/27 09:16:14;;;;;;;8.90;5.82;;;;;;;;;;4965533;28;20214;-58
2022/03/27 09:18:46;;;;;;;9.45;6.18;;;;;;;;;;4965839;28;20275;-59
2022/03/27 09:21:14;;;;;;;7.82;5.53;;;;;;;;;;4965018;28;20218;-58
2022/03/27 09:23:41;;;;;;;6.75;4.43;;;;;;;;;;4958697;28;20705;-58
2022/03/27 09:26:09;;;;;;;8.68;6.35;;;;;;;;;;4965624;28;20218;-58
2022/03/27 09:28:37;;;;;;;12.93;5.72;;;;;;;;;;4964886;28;20676;-60
2022/03/27 09:31:05;;;;;;;7.65;6.00;;;;;;;;;;4964269;28;20226;-58
2022/03/27 09:33:36;;;;;;;8.35;5.60;;;;;;;;;;4964407;28;20230;-57
2022/03/27 09:36:07;;;;;;;8.60;5.85;;;;;;;;;;4960349;28;20305;-58
2022/03/27 09:38:35;;;;;;;9.80;6.00;;;;;;;;;;4964526;28;20210;-61
2022/03/27 09:41:02;;;;;;;7.32;5.60;;;;;;;;;;4964456;28;20241;-59
2022/03/27 09:43:29;;;;;;;9.02;6.07;;;;;;;;;;4964241;28;20217;-58
2022/03/27 09:45:58;;;;;;;8.23;6.03;;;;;;;;;;4964574;28;20588;-59
2022/03/27 09:48:25;;;;;;;7.05;5.15;;;;;;;;;;4964583;28;20254;-59
2022/03/27 09:50:53;;;;;;;9.38;5.40;;;;;;;;;;4964257;28;20281;-60
2022/03/27 09:53:21;;;;;;;9.13;6.25;;;;;;;;;;4964325;28;20657;-58
2022/03/27 09:55:53;;;;;;;7.15;5.85;;;;;;;;;;4965064;28;20986;-59
2022/03/27 09:58:33;;;;;;;8.75;5.90;;;;;;;;;;4962845;28;20844;-58
2022/03/27 10:01:08;;;;;;;11.30;7.30;;;;;;;;;;4965037;28;20221;-59
2022/03/27 10:03:35;;;;;;;10.15;6.60;;;;;;;;;;4964801;28;20528;-59
2022/03/27 10:06:03;;;;;;;14.23;6.28;;;;;;;;;;4964662;28;20207;-59
2022/03/27 10:08:30;;;;;;;8.63;5.70;;;;;;;;;;4968389;28;20214;-59
2022/03/27 10:10:59;;;;;;;10.07;6.30;;;;;;;;;;4968669;28;20202;-59
2022/03/27 10:13:29;;;;;;;7.00;5.47;;;;;;;;;;4969034;28;20325;-59
2022/03/27 10:15:57;;;;;;;7.68;6.25;;;;;;;;;;4968455;28;20313;-58
2022/03/27 10:18:25;;;;;;;9.80;6.40;;;;;;;;;;4965855;28;20213;-59
2022/03/27 10:20:52;;;;;;;7.95;5.60;;;;;;;;;;4966731;28;20691;-59
2022/03/27 10:23:22;;;;;;;10.27;6.25;;;;;;;;;;4968055;28;20567;-59
2022/03/27 10:25:50;;;;;;;8.77;5.88;;;;;;;;;;4968720;28;20210;-59
2022/03/27 10:28:20;;;;;;;8.35;6.30;;;;;;;;;;4964537;28;20203;-59
2022/03/27 10:30:47;;;;;;;10.38;6.10;;;;;;;;;;4968206;28;20214;-59
2022/03/27 10:33:14;;;;;;;9.27;6.00;;;;;;;;;;4968139;28;20238;-59
2022/03/27 10:35:47;;;;;;;5.35;4.55;;;;;;;;;;4968115;28;20780;-60
2022/03/27 10:38:19;;;;;;;7.68;5.50;;;;;;;;;;4966189;28;20218;-59
2022/03/27 10:40:51;;;;;;;9.95;5.70;;;;;;;;;;4967995;28;20218;-59
2022/03/27 10:43:22;;;;;;;8.40;5.72;;;;;;;;;;4966598;28;20500;-58
2022/03/27 10:46:04;;;;;;;7.75;5.43;;;;;;;;;;4967334;28;20664;-59
2022/03/27 10:48:37;;;;;;;6.63;4.60;;;;;;;;;;4965396;28;20257;-59
2022/03/27 10:51:04;;;;;;;7.93;5.18;;;;;;;;;;4953281;28;20679;-59
2022/03/27 10:53:31;;;;;;;9.48;4.88;;;;;;;;;;4966808;28;20237;-59
2022/03/27 10:55:58;;;;;;;8.20;5.07;;;;;;;;;;4966956;28;20238;-59
2022/03/27 10:58:31;;;;;;;6.82;4.72;;;;;;;;;;4959000;28;20247;-59
2022/03/27 11:00:59;;;;;;;6.40;4.00;;;;;;;;;;4965810;28;20222;-59
2022/03/27 11:03:48;;;;;;;4.88;4.28;;;;;;;;;;4962730;28;20202;-59
2022/03/27 11:06:22;;;;;;;4.95;4.05;;;;;;;;;;4948289;28;20215;-59
2022/03/27 11:08:50;;;;;;;4.90;4.00;;;;;;;;;;4951485;28;20260;-59
2022/03/27 11:11:36;;;;;;;4.78;4.38;;;;;;;;;;4966789;28;20567;-60
2022/03/27 11:14:04;;;;;;;4.18;3.78;;;;;;;;;;4955787;28;20230;-60
2022/03/27 11:16:33;;;;;;;4.80;3.95;;;;;;;;;;4959177;28;20211;-59
2022/03/27 11:19:00;;;;;;;6.68;4.72;;;;;;;;;;4957818;28;20218;-59
2022/03/27 11:21:42;;;;;;;5.18;4.10;;;;;;;;;;4964106;28;20780;-59
2022/03/27 11:26:45;;;;;;;7.15;4.20;;;;;;;;;;5560751;23;20238;-61
2022/03/27 11:29:22;;;;;;;8.45;4.53;;;;;;;;;;4940110;29;20215;-61
2022/03/27 11:32:07;;;;;;;5.60;4.15;;;;;;;;;;4935740;29;20214;-61
2022/03/27 11:34:34;;;;;;;5.30;4.18;;;;;;;;;;4947546;29;20233;-61
2022/03/27 11:37:15;;;;;;;3.50;3.17;;;;;;;;;;4944937;29;20217;-58
2022/03/27 11:39:42;;;;;;;3.75;3.42;;;;;;;;;;4932893;29;20212;-59
2022/03/27 11:42:26;;;;;;;5.80;4.30;;;;;;;;;;4927967;29;20223;-59
2022/03/27 11:45:11;;;;;;;6.05;3.97;;;;;;;;;;4926992;29;20906;-59
2022/03/27 11:47:40;;;;;;;4.35;3.95;;;;;;;;;;4949192;28;20218;-61
2022/03/27 11:50:07;;;;;;;5.97;4.45;;;;;;;;;;4946909;29;20207;-61
2022/03/27 11:52:35;;;;;;;4.75;3.63;;;;;;;;;;4945317;29;20210;-59
2022/03/27 11:55:05;;;;;;;4.30;3.90;;;;;;;;;;4942148;29;20307;-60
2022/03/27 11:57:42;;;;;;;4.25;3.85;;;;;;;;;;4944127;29;20241;-61
2022/03/27 12:00:11;;;;;;;4.65;3.97;;;;;;;;;;4946723;29;20309;-61
2022/03/27 12:02:42;;;;;;;5.25;4.15;;;;;;;;;;4947079;29;20210;-59
2022/03/27 12:05:09;;;;;;;4.22;3.88;;;;;;;;;;4945806;29;20308;-60
2022/03/27 12:07:50;;;;;;;3.85;3.55;;;;;;;;;;4946852;29;20215;-58
2022/03/27 12:10:17;;;;;;;5.65;3.92;;;;;;;;;;4947011;29;20215;-59
2022/03/27 12:12:56;;;;;;;4.60;4.20;;;;;;;;;;4946907;29;20219;-60
2022/03/27 12:15:24;;;;;;;5.43;3.65;;;;;;;;;;4944656;29;20302;-61
2022/03/27 12:17:53;;;;;;;4.43;3.80;;;;;;;;;;4942748;29;20728;-60
2022/03/27 12:20:20;;;;;;;5.25;4.00;;;;;;;;;;4946047;29;20215;-60
2022/03/27 12:22:49;;;;;;;3.60;3.30;;;;;;;;;;4945949;29;20563;-60
2022/03/27 12:25:20;;;;;;;5.63;3.92;;;;;;;;;;4944292;29;20227;-60
2022/03/27 12:30:45;;;;;;;2.92;2.72;;;;;;;;;;4936789;29;20247;-59
2022/03/27 12:33:12;;;;;;;3.60;3.30;;;;;;;;;;4945680;29;20215;-59
2022/03/27 12:35:39;;;;;;;3.00;2.72;;;;;;;;;;4944190;29;20215;-60
2022/03/27 12:38:07;;;;;;;3.33;3.08;;;;;;;;;;4945592;29;20219;-59
2022/03/27 12:40:43;;;;;;;3.78;3.17;;;;;;;;;;4945300;29;20211;-59
2022/03/27 12:43:13;;;;;;;5.20;3.80;;;;;;;;;;4944150;29;20225;-60
2022/03/27 12:45:41;;;;;;;2.40;2.30;;;;;;;;;;4932387;29;20275;-59
2022/03/27 12:48:20;;;;;;;4.05;2.35;;;;;;;;;;4927241;29;20613;-60
2022/03/27 12:50:48;;;;;;;3.00;2.50;;;;;;;;;;4927414;29;20215;-59
2022/03/27 12:53:25;;;;;;;3.75;3.22;;;;;;;;;;4927717;29;20223;-60
2022/03/27 12:55:52;;;;;;;3.40;3.10;;;;;;;;;;4928392;29;20211;-60
2022/03/27 12:58:20;;;;;;;2.60;2.50;;;;;;;;;;4927320;29;20235;-60
2022/03/27 13:01:03;;;;;;;2.75;2.58;;;;;;;;;;4937902;29;20229;-60
2022/03/27 13:03:32;;;;;;;4.50;3.00;;;;;;;;;;4946019;29;20265;-60
2022/03/27 13:06:02;;;;;;;3.92;2.53;;;;;;;;;;4932746;29;20248;-60
2022/03/27 13:08:31;;;;;;;3.75;2.67;;;;;;;;;;4926935;29;20649;-59
2022/03/27 13:10:58;;;;;;;2.67;2.30;;;;;;;;;;4935869;29;20315;-60
2022/03/27 13:13:32;;;;;;;3.75;2.78;;;;;;;;;;4945563;29;20226;-60
2022/03/27 13:16:00;;;;;;;2.85;2.75;;;;;;;;;;4944586;29;20211;-60
2022/03/27 13:18:31;;;;;;;5.20;2.97;;;;;;;;;;4945792;29;20219;-60
2022/03/27 13:20:59;;;;;;;2.55;2.45;;;;;;;;;;4935356;29;20263;-61
2022/03/27 13:23:26;;;;;;;3.20;2.72;;;;;;;;;;4926263;29;20224;-59
2022/03/27 13:25:53;;;;;;;2.92;2.72;;;;;;;;;;4939824;29;20231;-59
2022/03/27 13:28:20;;;;;;;3.50;3.20;;;;;;;;;;4945698;29;20342;-59
2022/03/27 13:30:48;;;;;;;5.00;3.40;;;;;;;;;;4945950;29;20218;-59
2022/03/27 13:33:15;;;;;;;3.72;3.40;;;;;;;;;;4946260;29;20633;-59
2022/03/27 13:35:46;;;;;;;3.53;3.28;;;;;;;;;;4944609;29;20211;-59
2022/03/27 13:38:14;;;;;;;4.32;3.30;;;;;;;;;;4942768;29;20271;-59
2022/03/27 13:43:27;;;;;;;4.93;3.47;;;;;;;;;;4930442;29;20207;-59
2022/03/27 13:45:54;;;;;;;3.58;3.30;;;;;;;;;;4931354;29;20223;-61
2022/03/27 13:48:21;;;;;;;3.58;3.25;;;;;;;;;;4944061;29;20628;-60
2022/03/27 13:50:48;;;;;;;3.90;3.53;;;;;;;;;;4949343;29;20210;-59
2022/03/27 13:53:17;;;;;;;3.78;3.40;;;;;;;;;;4948969;29;20222;-60
2022/03/27 13:55:44;;;;;;;2.72;2.60;;;;;;;;;;4947342;29;20868;-60
2022/03/27 13:58:11;;;;;;;3.75;3.28;;;;;;;;;;4948649;29;20223;-59
2022/03/27 14:00:38;;;;;;;3.30;3.10;;;;;;;;;;4948826;29;20266;-59
2022/03/27 14:03:06;;;;;;;5.03;3.25;;;;;;;;;;4949113;29;20218;-59
2022/03/27 14:05:34;;;;;;;4.10;3.10;;;;;;;;;;4947322;29;20214;-60
2022/03/27 14:08:01;;;;;;;2.95;2.75;;;;;;;;;;4937430;29;20258;-59
2022/03/27 14:10:30;;;;;;;3.45;3.13;;;;;;;;;;4949019;29;20211;-59
2022/03/27 14:12:57;;;;;;;4.57;3.17;;;;;;;;;;4949284;29;20281;-59
2022/03/27 14:15:24;;;;;;;4.20;3.78;;;;;;;;;;4949233;29;20297;-60
2022/03/27 14:17:51;;;;;;;5.38;4.10;;;;;;;;;;4948108;29;20214;-59
2022/03/27 14:20:18;;;;;;;4.30;3.72;;;;;;;;;;4949164;29;20250;-59
2022/03/27 14:22:46;;;;;;;6.25;4.32;;;;;;;;;;4945493;29;20211;-61
2022/03/27 14:25:13;;;;;;;4.10;3.72;;;;;;;;;;4948662;29;20231;-60
2022/03/27 14:27:42;;;;;;;5.18;3.53;;;;;;;;;;4936821;29;20612;-59
2022/03/27 14:30:11;;;;;;;3.67;3.38;;;;;;;;;;4935142;29;20234;-60
2022/03/27 14:32:38;;;;;;;3.28;2.97;;;;;;;;;;4948176;29;20441;-59
2022/03/27 14:35:14;;;;;;;5.38;4.82;;;;;;;;;;4946763;29;20788;-59
2022/03/27 14:37:42;;;;;;;3.78;3.47;;;;;;;;;;4937874;29;20226;-59
2022/03/27 14:40:10;;;;;;;6.53;4.18;;;;;;;;;;4948274;29;20223;-59
2022/03/27 14:42:38;;;;;;;8.43;5.05;;;;;;;;;;4947722;29;20226;-59
2022/03/27 14:45:07;;;;;;;6.53;4.50;;;;;;;;;;4947428;29;20222;-60
2022/03/27 14:47:34;;;;;;;6.05;4.90;;;;;;;;;;4942592;29;20214;-60
2022/03/27 14:50:02;;;;;;;6.22;4.97;;;;;;;;;;4928801;29;20227;-60
2022/03/27 14:52:29;;;;;;;8.98;4.93;;;;;;;;;;4928363;29;20222;-59
2022/03/27 14:57:41;;;;;;;8.65;4.63;;;;;;;;;;4931214;29;20214;-59
2022/03/27 15:00:10;;;;;;;7.53;5.45;;;;;;;;;;4934636;29;20215;-59
2022/03/27 15:02:37;;;;;;;7.13;4.45;;;;;;;;;;4948279;29;20222;-60
2022/03/27 15:05:04;;;;;;;5.07;4.30;;;;;;;;;;4946719;29;20215;-59
2022/03/27 15:07:31;;;;;;;7.53;4.28;;;;;;;;;;4948001;29;20752;-59